ブリスベン の空港の天気 - METARとTAF

ブリスベン空港 ( YBBN / BNE ) - オーストラリア クイーンズランド州ブリスベン
飛行場実況気象(Metar)
観測時間10/22 02:00 AEST (10/21 16:00 UTC)
風向・風速北西 1m/s
視程10km以上
天気現象弱い雨
少しの雲 雲底高度 1070m
全天の4割程度の雲 雲底高度 2100m
全天を覆う雲 雲底高度 3660m
気温19℃
湿度88%
気圧1014hPa
METARYBBN 211600Z 32002KT 9999 -RA FEW035 SCT069 OVC120 19/17 Q1014
過去の天気等 Google飛行場航空写真 Wunderground天気予報

過去48時間のMETAR

飛行場予報(TAF)
発表時間: 10/22 01:15 AEST (10/21 15:15 UTC)
予報対象時間: 22日1時 AEST ~ 23日4時 AEST
風向・風速西 3m/s
視程10km以上
天気現象弱い雨
全天の4割程度の雲 雲底高度 760m
全天を覆う雲 雲底高度 2740m
22日9時 AEST ~ 22日10時 AEST に徐々に
風向・風速北北東 4m/s
視程10km以上
天気現象弱いしゅう雨
全天の4割程度の雲 雲底高度 760m
22日22時 AEST から
風向・風速南南西 3m/s
視程10km以上
天気現象運行に影響にある天気現象が終了
全天の4割程度の雲 雲底高度 760m
22日7時 AEST ~ 22日13時 AEST に一時的に
視程5000m
天気現象
全天の8割程度の雲 雲底高度 370m
TAF AMD YBBN 211515Z 2115/2218 26005KT 9999 -RA SCT025 OVC090
BECMG 2123/2200 03008KT 9999 -SHRA SCT025
FM221200 20006KT 9999 NSW SCT025
TEMPO 2121/2203 5000 RA BKN012